Time;durP1;ratioP1;P1;durP2;ratioP2;P2;SDS_P1;SDS_P2;PMS_P1;PMS_P2;Temp;Humidity;BMP_temperature;BMP_pressure;BME280_temperature;BME280_humidity;BME280_pressure;Samples;Min_cycle;Max_cycle;Signal;HPM_P1;HPM_P2
2022/07/26 00:02:23;;;;;;;;;;;19.40;99.90;;;;;;4962855;28;19910;-64
2022/07/26 00:04:49;;;;;;;;;;;19.30;99.90;;;;;;4965419;28;20374;-64
2022/07/26 00:07:15;;;;;;;;;;;19.30;99.90;;;;;;4958460;28;19926;-64
2022/07/26 00:09:42;;;;;;;;;;;19.30;99.90;;;;;;4966340;28;19925;-64
2022/07/26 00:12:08;;;;;;;;;;;19.30;99.90;;;;;;4959927;28;19912;-64
2022/07/26 00:14:33;;;;;;;;;;;19.20;99.90;;;;;;4939730;29;19997;-64
2022/07/26 00:17:00;;;;;;;;;;;19.10;99.90;;;;;;4959500;28;19922;-64
2022/07/26 00:19:25;;;;;;;;;;;19.10;99.90;;;;;;4958612;28;19910;-64
2022/07/26 00:22:32;;;;;;;;;;;19.10;99.90;;;;;;4943219;28;20010;-64
2022/07/26 00:24:38;;;;;;;;;;;19.10;99.90;;;;;;4959196;28;19926;-64
2022/07/26 00:27:04;;;;;;;;;;;19.10;99.90;;;;;;4961360;28;20363;-64
2022/07/26 00:29:29;;;;;;;;;;;19.10;99.90;;;;;;4963086;28;19954;-64
2022/07/26 00:31:55;;;;;;;;;;;19.10;99.90;;;;;;4958950;28;19914;-64
2022/07/26 00:34:20;;;;;;;;;;;19.00;99.90;;;;;;4949000;28;20281;-64
2022/07/26 00:36:46;;;;;;;;;;;19.00;99.90;;;;;;4962429;28;19961;-64
2022/07/26 00:39:11;;;;;;;;;;;19.00;99.90;;;;;;4956880;28;19960;-64
2022/07/26 00:41:37;;;;;;;;;;;19.00;99.90;;;;;;4963321;28;20417;-64
2022/07/26 00:44:03;;;;;;;;;;;18.90;99.90;;;;;;4962166;28;19906;-64
2022/07/26 00:46:28;;;;;;;;;;;18.90;99.90;;;;;;4967379;28;19906;-64
2022/07/26 00:48:54;;;;;;;;;;;18.90;99.90;;;;;;4959194;28;20227;-64
2022/07/26 00:51:19;;;;;;;;;;;18.80;99.90;;;;;;4960489;28;20250;-64
2022/07/26 00:53:45;;;;;;;;;;;18.70;99.90;;;;;;4963802;28;19996;-64
2022/07/26 00:56:13;;;;;;;;;;;18.70;99.90;;;;;;4941078;28;20409;-64
2022/07/26 00:58:38;;;;;;;;;;;18.60;99.90;;;;;;4947850;28;19909;-64
2022/07/26 01:01:04;;;;;;;;;;;18.50;99.90;;;;;;4962345;28;19917;-63
2022/07/26 01:03:30;;;;;;;;;;;18.40;99.90;;;;;;4968258;28;19906;-63
2022/07/26 01:05:55;;;;;;;;;;;18.40;99.90;;;;;;4963124;28;20337;-63
2022/07/26 01:08:21;;;;;;;;;;;18.20;99.90;;;;;;4966143;28;19945;-63
2022/07/26 01:10:46;;;;;;;;;;;18.20;99.90;;;;;;4944136;29;19910;-64
2022/07/26 01:13:17;;;;;;;;;;;18.10;99.90;;;;;;4966399;28;19910;-64
2022/07/26 01:15:43;;;;;;;;;;;18.10;99.90;;;;;;4946253;28;19938;-64
2022/07/26 01:18:08;;;;;;;;;;;17.90;99.90;;;;;;4963641;28;19918;-64
2022/07/26 01:20:34;;;;;;;;;;;17.80;99.90;;;;;;4967371;28;19913;-64
2022/07/26 01:22:59;;;;;;;;;;;17.80;99.90;;;;;;4947424;28;19922;-64
2022/07/26 01:25:29;;;;;;;;;;;17.80;99.90;;;;;;4951478;28;19999;-63
2022/07/26 01:27:55;;;;;;;;;;;17.90;99.90;;;;;;4971986;28;20329;-63
2022/07/26 01:30:21;;;;;;;;;;;17.70;99.90;;;;;;4948593;28;19953;-63
2022/07/26 01:32:46;;;;;;;;;;;17.60;99.90;;;;;;4969090;28;19936;-63
2022/07/26 01:35:12;;;;;;;;;;;17.50;99.90;;;;;;4965421;28;20005;-63
2022/07/26 01:37:37;;;;;;;;;;;17.40;99.90;;;;;;4963723;28;19918;-63
2022/07/26 01:40:04;;;;;;;;;;;17.40;99.90;;;;;;4965927;28;19913;-63
2022/07/26 01:42:29;;;;;;;;;;;17.50;99.90;;;;;;4962713;28;19925;-63
2022/07/26 01:44:55;;;;;;;;;;;17.40;99.90;;;;;;4961566;28;20350;-63
2022/07/26 01:47:21;;;;;;;;;;;17.40;99.90;;;;;;4956597;28;19906;-63
2022/07/26 01:49:46;;;;;;;;;;;17.30;99.90;;;;;;4961088;28;19914;-64
2022/07/26 01:52:12;;;;;;;;;;;17.30;99.90;;;;;;4966889;28;19906;-63
2022/07/26 01:54:37;;;;;;;;;;;17.40;99.90;;;;;;4963857;28;20293;-63
2022/07/26 01:57:03;;;;;;;;;;;17.30;99.90;;;;;;4962864;28;20348;-63
2022/07/26 01:59:28;;;;;;;;;;;17.40;99.90;;;;;;4965165;28;19910;-63
2022/07/26 02:01:54;;;;;;;;;;;17.30;99.90;;;;;;4967662;28;19905;-63
2022/07/26 02:07:04;;;;;;;;;;;17.50;99.90;;;;;;4962400;28;19920;-63
2022/07/26 02:09:29;;;;;;;;;;;17.50;99.90;;;;;;4943622;28;19914;-63
2022/07/26 02:11:55;;;;;;;;;;;17.60;99.90;;;;;;4965515;28;19913;-63
2022/07/26 02:14:20;;;;;;;;;;;17.70;99.90;;;;;;4965368;28;20326;-63
2022/07/26 02:16:46;;;;;;;;;;;17.80;99.90;;;;;;4963573;28;19913;-63
2022/07/26 02:19:11;;;;;;;;;;;17.80;99.90;;;;;;4961851;28;19910;-64
2022/07/26 02:21:37;;;;;;;;;;;17.80;99.90;;;;;;4950792;28;19906;-64
2022/07/26 02:24:02;;;;;;;;;;;17.80;99.90;;;;;;4964979;28;20495;-64
2022/07/26 02:26:28;;;;;;;;;;;17.80;99.90;;;;;;4940015;28;19918;-64
2022/07/26 02:28:53;;;;;;;;;;;17.80;99.90;;;;;;4946411;28;19907;-63
2022/07/26 02:31:19;;;;;;;;;;;17.70;99.90;;;;;;4950339;29;19969;-64
2022/07/26 02:33:44;;;;;;;;;;;17.70;99.90;;;;;;4963915;28;19941;-64
2022/07/26 02:36:10;;;;;;;;;;;17.60;99.90;;;;;;4955879;28;20308;-64
2022/07/26 02:38:35;;;;;;;;;;;17.50;99.90;;;;;;4964123;28;19920;-63
2022/07/26 02:41:01;;;;;;;;;;;17.60;99.90;;;;;;4949289;28;19912;-63
2022/07/26 02:43:29;;;;;;;;;;;17.60;99.90;;;;;;4962219;28;19910;-64
2022/07/26 02:45:54;;;;;;;;;;;17.70;99.90;;;;;;4957245;28;19911;-63
2022/07/26 02:48:20;;;;;;;;;;;17.70;99.90;;;;;;4961189;28;20438;-63
2022/07/26 02:50:45;;;;;;;;;;;17.80;99.90;;;;;;4966467;28;19910;-64
2022/07/26 02:53:11;;;;;;;;;;;17.80;99.90;;;;;;4961500;28;19962;-64
2022/07/26 02:55:36;;;;;;;;;;;17.90;99.90;;;;;;4951758;28;19914;-63
2022/07/26 02:58:02;;;;;;;;;;;17.90;99.90;;;;;;4960985;28;20295;-63
2022/07/26 03:00:28;;;;;;;;;;;17.90;99.90;;;;;;4947727;28;19910;-63
2022/07/26 03:02:53;;;;;;;;;;;17.90;99.90;;;;;;4965932;28;20010;-63
2022/07/26 03:05:19;;;;;;;;;;;17.90;99.90;;;;;;4966269;28;19930;-63
2022/07/26 03:07:45;;;;;;;;;;;17.90;99.90;;;;;;4941598;29;20354;-63
2022/07/26 03:10:11;;;;;;;;;;;17.90;99.90;;;;;;4957429;28;20412;-63
2022/07/26 03:12:36;;;;;;;;;;;17.90;99.90;;;;;;4963002;28;20406;-64
2022/07/26 03:15:02;;;;;;;;;;;17.90;99.90;;;;;;4965635;28;19933;-64
2022/07/26 03:17:28;;;;;;;;;;;17.80;99.90;;;;;;4952721;28;19960;-64
2022/07/26 03:19:53;;;;;;;;;;;17.80;99.90;;;;;;4960556;28;20370;-64
2022/07/26 03:22:19;;;;;;;;;;;17.80;99.90;;;;;;4946698;28;19913;-64
2022/07/26 03:24:44;;;;;;;;;;;17.80;99.90;;;;;;4966293;28;20421;-64
2022/07/26 03:27:10;;;;;;;;;;;17.80;99.90;;;;;;4961474;28;19906;-64
2022/07/26 03:29:35;;;;;;;;;;;17.90;99.90;;;;;;4960361;28;19918;-64
2022/07/26 03:32:02;;;;;;;;;;;17.90;99.90;;;;;;4945596;28;19910;-63
2022/07/26 03:34:27;;;;;;;;;;;17.90;99.90;;;;;;4961958;28;20402;-63
2022/07/26 03:36:53;;;;;;;;;;;18.00;99.90;;;;;;4962490;28;19928;-63
2022/07/26 03:39:18;;;;;;;;;;;17.90;99.90;;;;;;4959123;28;19949;-64
2022/07/26 03:41:44;;;;;;;;;;;17.90;99.90;;;;;;4960905;28;19913;-64
2022/07/26 03:44:09;;;;;;;;;;;17.90;99.90;;;;;;4959681;28;19981;-63
2022/07/26 03:46:35;;;;;;;;;;;17.80;99.90;;;;;;4965966;28;19906;-63
2022/07/26 03:49:00;;;;;;;;;;;17.60;99.90;;;;;;4961381;28;19957;-63
2022/07/26 03:51:26;;;;;;;;;;;17.50;99.90;;;;;;4951201;28;20006;-63
2022/07/26 03:53:51;;;;;;;;;;;17.40;99.90;;;;;;4961082;28;19990;-63
2022/07/26 03:56:32;;;;;;;;;;;17.30;99.90;;;;;;4958942;28;19916;-63
2022/07/26 03:58:59;;;;;;;;;;;17.30;99.90;;;;;;4962274;28;19910;-63
2022/07/26 04:01:24;;;;;;;;;;;17.30;99.90;;;;;;4949810;28;19913;-64
2022/07/26 04:03:50;;;;;;;;;;;17.40;99.90;;;;;;4956481;28;19996;-64
2022/07/26 04:06:15;;;;;;;;;;;17.40;99.90;;;;;;4953751;29;19940;-63
2022/07/26 04:08:41;;;;;;;;;;;17.30;99.90;;;;;;4951633;28;20405;-63
2022/07/26 04:11:07;;;;;;;;;;;17.40;99.90;;;;;;4966280;28;20310;-64
2022/07/26 04:13:34;;;;;;;;;;;17.40;99.90;;;;;;4964253;28;20048;-64
2022/07/26 04:15:59;;;;;;;;;;;17.40;99.90;;;;;;4953695;29;19914;-64
2022/07/26 04:18:25;;;;;;;;;;;17.40;99.90;;;;;;4967353;28;20001;-63
2022/07/26 04:20:50;;;;;;;;;;;17.40;99.90;;;;;;4966439;28;20053;-64
2022/07/26 04:23:17;;;;;;;;;;;17.30;99.90;;;;;;4954053;28;19936;-60
2022/07/26 04:25:43;;;;;;;;;;;17.30;99.90;;;;;;4958517;28;19914;-60
2022/07/26 04:28:09;;;;;;;;;;;17.30;99.90;;;;;;4940277;28;19910;-60
2022/07/26 04:30:35;;;;;;;;;;;17.30;99.90;;;;;;4940754;28;19946;-61
2022/07/26 04:33:01;;;;;;;;;;;17.30;99.90;;;;;;4949510;28;20425;-60
2022/07/26 04:35:26;;;;;;;;;;;17.20;99.90;;;;;;4953947;28;19910;-62
2022/07/26 04:37:52;;;;;;;;;;;17.00;99.90;;;;;;4958414;28;19949;-62
2022/07/26 04:40:18;;;;;;;;;;;16.80;99.90;;;;;;4963006;28;20415;-62
2022/07/26 04:42:44;;;;;;;;;;;16.60;99.90;;;;;;4958513;28;19906;-61
2022/07/26 04:45:11;;;;;;;;;;;16.50;99.90;;;;;;4945611;28;20278;-62
2022/07/26 04:47:40;;;;;;;;;;;16.50;99.90;;;;;;4956753;28;20334;-62
2022/07/26 04:50:06;;;;;;;;;;;16.40;99.90;;;;;;4960228;28;19953;-61
2022/07/26 04:52:31;;;;;;;;;;;16.50;99.90;;;;;;4945393;28;19942;-60
2022/07/26 04:54:57;;;;;;;;;;;16.40;99.90;;;;;;4962230;28;19914;-60
2022/07/26 04:57:22;;;;;;;;;;;16.40;99.90;;;;;;4954221;28;19965;-61
2022/07/26 04:59:48;;;;;;;;;;;16.40;99.90;;;;;;4964844;28;20309;-61
2022/07/26 05:02:14;;;;;;;;;;;16.40;99.90;;;;;;4969223;28;19943;-62
2022/07/26 05:04:40;;;;;;;;;;;16.40;99.90;;;;;;4971140;28;19945;-62
2022/07/26 05:07:06;;;;;;;;;;;16.40;99.90;;;;;;4942436;28;20005;-61
2022/07/26 05:09:32;;;;;;;;;;;16.40;99.90;;;;;;4965383;28;20378;-61
2022/07/26 05:11:57;;;;;;;;;;;16.40;99.90;;;;;;4970224;28;19997;-62
2022/07/26 05:14:23;;;;;;;;;;;16.40;99.90;;;;;;4963784;28;19913;-62
2022/07/26 05:16:48;;;;;;;;;;;16.40;99.90;;;;;;4968940;28;19910;-62
2022/07/26 05:19:14;;;;;;;;;;;16.50;99.90;;;;;;4949055;28;19910;-62
2022/07/26 05:21:39;;;;;;;;;;;16.50;99.90;;;;;;4965110;28;19973;-59
2022/07/26 05:24:05;;;;;;;;;;;16.60;99.90;;;;;;4965247;28;19961;-59
2022/07/26 05:26:30;;;;;;;;;;;16.60;99.90;;;;;;4953407;28;19919;-59
2022/07/26 05:28:56;;;;;;;;;;;16.70;99.90;;;;;;4939537;28;20378;-60
2022/07/26 05:31:22;;;;;;;;;;;16.70;99.90;;;;;;4943644;28;19950;-59
2022/07/26 05:33:47;;;;;;;;;;;16.60;99.90;;;;;;4965294;28;19914;-60
2022/07/26 05:36:13;;;;;;;;;;;16.70;99.90;;;;;;4956973;28;19906;-59
2022/07/26 05:38:38;;;;;;;;;;;16.70;99.90;;;;;;4959147;28;19910;-59
2022/07/26 05:41:04;;;;;;;;;;;16.80;99.90;;;;;;4959478;28;19909;-59
2022/07/26 05:43:30;;;;;;;;;;;16.80;99.90;;;;;;4958866;28;19941;-60
2022/07/26 05:45:56;;;;;;;;;;;16.80;99.90;;;;;;4955138;28;19910;-59
2022/07/26 05:48:21;;;;;;;;;;;16.80;99.90;;;;;;4966767;28;19914;-59
2022/07/26 05:50:47;;;;;;;;;;;16.90;99.90;;;;;;4960714;28;20305;-60
2022/07/26 05:53:13;;;;;;;;;;;17.00;99.90;;;;;;4943553;28;19948;-59
2022/07/26 05:55:38;;;;;;;;;;;17.10;99.90;;;;;;4946093;28;19965;-60
2022/07/26 05:58:04;;;;;;;;;;;17.20;99.90;;;;;;4964249;28;19914;-60
2022/07/26 06:00:29;;;;;;;;;;;17.20;99.90;;;;;;4966034;28;19918;-61
2022/07/26 06:02:55;;;;;;;;;;;17.10;99.90;;;;;;4953186;28;19941;-60
2022/07/26 06:05:20;;;;;;;;;;;17.10;99.90;;;;;;4965929;28;20484;-61
2022/07/26 06:07:46;;;;;;;;;;;17.20;99.90;;;;;;4961573;28;19974;-61
2022/07/26 06:10:12;;;;;;;;;;;17.20;99.90;;;;;;4954239;28;19906;-60
2022/07/26 06:12:37;;;;;;;;;;;17.30;99.90;;;;;;4966162;28;19906;-60
2022/07/26 06:15:03;;;;;;;;;;;17.40;99.90;;;;;;4959387;28;19945;-60
2022/07/26 06:17:40;;;;;;;;;;;17.60;99.90;;;;;;4966978;28;19960;-60
2022/07/26 06:20:05;;;;;;;;;;;17.70;99.90;;;;;;4964662;28;19906;-60
2022/07/26 06:22:31;;;;;;;;;;;17.60;99.90;;;;;;4966127;28;20277;-60
2022/07/26 06:24:56;;;;;;;;;;;17.60;99.90;;;;;;4951413;28;19910;-60
2022/07/26 06:27:22;;;;;;;;;;;17.70;99.90;;;;;;4956566;28;19945;-60
2022/07/26 06:29:48;;;;;;;;;;;17.80;99.90;;;;;;4946045;28;19913;-61
2022/07/26 06:32:13;;;;;;;;;;;17.90;99.90;;;;;;4958223;28;20448;-61
2022/07/26 06:34:39;;;;;;;;;;;17.90;99.90;;;;;;4964116;28;19953;-62
2022/07/26 06:37:04;;;;;;;;;;;18.10;99.90;;;;;;4958740;28;20338;-61
2022/07/26 06:39:31;;;;;;;;;;;18.30;99.90;;;;;;4958568;28;19906;-61
2022/07/26 06:41:56;;;;;;;;;;;18.30;99.90;;;;;;4959502;28;20264;-61
2022/07/26 06:44:22;;;;;;;;;;;18.30;99.90;;;;;;4958737;28;19910;-62
2022/07/26 06:46:48;;;;;;;;;;;18.30;99.90;;;;;;4960794;28;19957;-62
2022/07/26 06:49:14;;;;;;;;;;;18.30;99.90;;;;;;4957218;28;19906;-62
2022/07/26 06:51:39;;;;;;;;;;;18.40;99.90;;;;;;4959915;28;19915;-62
2022/07/26 06:54:05;;;;;;;;;;;18.40;99.90;;;;;;4957830;28;19950;-62
2022/07/26 06:56:31;;;;;;;;;;;18.40;99.90;;;;;;4957398;28;20409;-62
2022/07/26 06:58:56;;;;;;;;;;;18.60;99.90;;;;;;4956306;28;19918;-61
2022/07/26 07:01:22;;;;;;;;;;;18.80;99.90;;;;;;4960058;28;20625;-62
2022/07/26 07:03:47;;;;;;;;;;;19.10;99.90;;;;;;4962378;28;20370;-61
2022/07/26 07:06:13;;;;;;;;;;;18.90;99.90;;;;;;4964742;28;19913;-62
2022/07/26 07:08:39;;;;;;;;;;;19.00;99.90;;;;;;4946647;28;19913;-62
2022/07/26 07:11:04;;;;;;;;;;;19.20;99.90;;;;;;4954243;28;19946;-62
2022/07/26 07:13:30;;;;;;;;;;;19.10;99.90;;;;;;4947009;28;20377;-62
2022/07/26 07:15:55;;;;;;;;;;;19.00;99.90;;;;;;4944160;28;19906;-62
2022/07/26 07:18:21;;;;;;;;;;;18.90;99.90;;;;;;4956923;28;19922;-62
2022/07/26 07:20:46;;;;;;;;;;;18.90;99.90;;;;;;4958347;28;19953;-62
2022/07/26 07:23:12;;;;;;;;;;;19.10;99.90;;;;;;4956738;28;19930;-62
2022/07/26 07:25:37;;;;;;;;;;;19.00;99.90;;;;;;4956250;28;19952;-62
2022/07/26 07:28:03;;;;;;;;;;;18.90;99.90;;;;;;4955867;28;19907;-62
2022/07/26 07:30:28;;;;;;;;;;;18.90;99.90;;;;;;4959503;28;20318;-62
2022/07/26 07:32:54;;;;;;;;;;;18.90;99.90;;;;;;4960154;28;19906;-62
2022/07/26 07:35:20;;;;;;;;;;;19.00;99.90;;;;;;4953267;28;19910;-62
2022/07/26 07:37:45;;;;;;;;;;;19.00;99.90;;;;;;4946645;28;20305;-62
2022/07/26 07:40:11;;;;;;;;;;;19.10;99.90;;;;;;4959588;28;19910;-62
2022/07/26 07:42:37;;;;;;;;;;;19.20;99.90;;;;;;4958629;28;20353;-62
2022/07/26 07:45:03;;;;;;;;;;;19.20;99.90;;;;;;4956363;28;19988;-62
2022/07/26 07:47:31;;;;;;;;;;;19.60;99.90;;;;;;4937403;28;19934;-62
2022/07/26 07:49:57;;;;;;;;;;;19.70;99.90;;;;;;4955487;28;19994;-62
2022/07/26 07:52:23;;;;;;;;;;;19.90;99.90;;;;;;4941543;28;20013;-60
2022/07/26 07:54:48;;;;;;;;;;;19.90;99.90;;;;;;4960352;28;19953;-62
2022/07/26 07:57:14;;;;;;;;;;;20.10;99.90;;;;;;4951853;28;19907;-62
2022/07/26 07:59:39;;;;;;;;;;;19.90;99.90;;;;;;4957668;28;19910;-62
2022/07/26 08:02:06;;;;;;;;;;;20.20;99.90;;;;;;4962149;28;19906;-63
2022/07/26 08:04:32;;;;;;;;;;;20.20;99.90;;;;;;4926356;29;20355;-62
2022/07/26 08:06:57;;;;;;;;;;;20.20;99.90;;;;;;4957915;28;19913;-62
2022/07/26 08:09:23;;;;;;;;;;;20.30;99.90;;;;;;4957838;28;20013;-61
2022/07/26 08:11:49;;;;;;;;;;;20.20;99.90;;;;;;4962696;28;19913;-63
2022/07/26 08:14:14;;;;;;;;;;;20.10;99.90;;;;;;4964019;28;19910;-64
2022/07/26 08:16:40;;;;;;;;;;;20.40;99.90;;;;;;4966369;28;19906;-64
2022/07/26 08:19:05;;;;;;;;;;;20.50;99.90;;;;;;4945220;28;19914;-64
2022/07/26 08:21:31;;;;;;;;;;;20.50;99.90;;;;;;4961280;28;20255;-64
2022/07/26 08:23:56;;;;;;;;;;;20.50;99.90;;;;;;4968310;28;19973;-64
2022/07/26 08:26:22;;;;;;;;;;;20.40;99.90;;;;;;4957228;28;19931;-62
2022/07/26 08:28:48;;;;;;;;;;;20.60;99.90;;;;;;4963672;28;19906;-62
2022/07/26 08:31:14;;;;;;;;;;;21.10;99.90;;;;;;4956822;28;19950;-62
2022/07/26 08:33:40;;;;;;;;;;;22.20;99.90;;;;;;4957195;28;19921;-63
2022/07/26 08:36:05;;;;;;;;;;;22.60;99.90;;;;;;4962948;28;20366;-63
2022/07/26 08:38:31;;;;;;;;;;;22.20;99.90;;;;;;4964995;28;19921;-63
2022/07/26 08:40:57;;;;;;;;;;;21.90;99.90;;;;;;4960086;28;19914;-64
2022/07/26 08:43:23;;;;;;;;;;;22.20;99.90;;;;;;4968915;28;19906;-64
2022/07/26 08:45:49;;;;;;;;;;;22.90;99.90;;;;;;4948588;28;19998;-64
2022/07/26 08:48:15;;;;;;;;;;;22.70;99.90;;;;;;4963090;28;19992;-62
2022/07/26 08:50:40;;;;;;;;;;;22.60;99.90;;;;;;4943405;29;19906;-60
2022/07/26 08:53:08;;;;;;;;;;;22.00;99.90;;;;;;4966153;28;20363;-60
2022/07/26 08:55:34;;;;;;;;;;;21.60;99.90;;;;;;4956821;28;20221;-60
2022/07/26 08:58:01;;;;;;;;;;;21.30;99.90;;;;;;4963002;28;20001;-60
2022/07/26 09:00:30;;;;;;;;;;;21.20;99.90;;;;;;4957906;28;19906;-61
2022/07/26 09:02:56;;;;;;;;;;;21.20;99.90;;;;;;4960786;28;20001;-63
2022/07/26 09:05:26;;;;;;;;;;;22.10;99.90;;;;;;4971958;28;19914;-63
2022/07/26 09:07:52;;;;;;;;;;;23.10;99.90;;;;;;4944440;28;19969;-61
2022/07/26 09:10:17;;;;;;;;;;;24.00;99.90;;;;;;4961428;28;19907;-63
2022/07/26 09:12:43;;;;;;;;;;;24.60;99.90;;;;;;4960612;28;19918;-63
2022/07/26 09:15:19;;;;;;;;;;;24.60;99.90;;;;;;4963892;28;19906;-63
2022/07/26 09:17:46;;;;;;;;;;;23.80;99.90;;;;;;4969481;28;20392;-63
2022/07/26 09:20:15;;;;;;;;;;;22.90;99.90;;;;;;4949962;29;19907;-63
2022/07/26 09:22:59;;;;;;;;;;;22.10;99.90;;;;;;4964646;28;19922;-64
2022/07/26 09:25:26;;;;;;;;;;;21.80;99.90;;;;;;4968758;28;20329;-63
2022/07/26 09:27:52;;;;;;;;;;;21.60;99.90;;;;;;4952518;28;20488;-63
2022/07/26 09:30:17;;;;;;;;;;;20.90;99.90;;;;;;4960402;28;19949;-63
2022/07/26 09:33:00;;;;;;;;;;;20.30;99.90;;;;;;4963298;28;19932;-62
2022/07/26 09:35:26;;;;;;;;;;;19.40;99.90;;;;;;4959745;28;19993;-62
2022/07/26 09:37:51;;;;;;;;;;;18.80;99.90;;;;;;4959749;28;20008;-62
2022/07/26 09:40:17;;;;;;;;;;;18.60;99.90;;;;;;4961907;28;20448;-62
2022/07/26 09:42:56;;;;;;;;;;;18.60;99.90;;;;;;4956769;28;20361;-62
2022/07/26 09:45:22;;;;;;;;;;;18.80;99.90;;;;;;4963946;28;19910;-62
2022/07/26 09:47:48;;;;;;;;;;;19.00;99.90;;;;;;4962708;28;19907;-62
2022/07/26 09:50:20;;;;;;;;;;;19.00;99.90;;;;;;4961887;28;20259;-62
2022/07/26 09:53:15;;;;;;;;;;;19.40;99.90;;;;;;4955912;28;20481;-60
2022/07/26 09:55:46;;;;;;;;;;;20.30;99.90;;;;;;4939421;28;19938;-60
2022/07/26 09:58:13;;;;;;;;;;;21.60;99.90;;;;;;4962926;28;19917;-63
2022/07/26 10:00:39;;;;;;;;;;;22.70;99.90;;;;;;4967101;28;19912;-60
2022/07/26 10:03:04;;;;;;;;;;;22.30;99.90;;;;;;4964240;28;20341;-62
2022/07/26 10:05:31;;;;;;;;;;;21.50;99.90;;;;;;4964178;28;20393;-63
2022/07/26 10:07:58;;;;;;;;;;;21.20;99.90;;;;;;4958466;28;19993;-63
2022/07/26 10:10:29;;;;;;;;;;;20.70;99.90;;;;;;4961239;28;19933;-63
2022/07/26 10:12:55;;;;;;;;;;;20.20;99.90;;;;;;4961465;28;20005;-63
2022/07/26 10:15:40;;;;;;;;;;;19.90;99.90;;;;;;4958709;28;20469;-63
2022/07/26 10:18:10;;;;;;;;;;;19.50;99.90;;;;;;4962032;28;19914;-62
2022/07/26 10:20:50;;;;;;;;;;;19.40;99.90;;;;;;4947814;28;20024;-62
2022/07/26 10:23:36;;;;;;;;;;;19.20;99.90;;;;;;4958308;28;20005;-61
2022/07/26 10:26:02;;;;;;;;;;;19.20;99.90;;;;;;4961997;28;20355;-62
2022/07/26 10:28:29;;;;;;;;;;;19.70;99.90;;;;;;4957431;28;20263;-62
2022/07/26 10:31:13;;;;;;;;;;;20.70;99.90;;;;;;4958265;28;19946;-62
2022/07/26 10:33:41;;;;;;;;;;;21.40;99.90;;;;;;4958562;28;19910;-62
2022/07/26 10:36:20;;;;;;;;;;;22.50;99.90;;;;;;4942459;28;19914;-62
2022/07/26 10:38:56;;;;;;;;;;;23.00;99.90;;;;;;4942162;28;19995;-62
2022/07/26 10:41:35;;;;;;;;;;;23.10;99.90;;;;;;4961230;28;19906;-62
2022/07/26 10:44:17;;;;;;;;;;;23.60;99.90;;;;;;4954671;28;20491;-62
2022/07/26 10:46:57;;;;;;;;;;;23.40;99.90;;;;;;4957932;28;19915;-61
2022/07/26 10:49:43;;;;;;;;;;;22.80;99.90;;;;;;4941197;29;20449;-62
2022/07/26 10:52:11;;;;;;;;;;;23.10;99.90;;;;;;4959767;28;19919;-63
2022/07/26 10:54:55;;;;;;;;;;;22.90;99.90;;;;;;4957840;28;20362;-62
2022/07/26 10:57:21;;;;;;;;;;;22.60;99.90;;;;;;4956782;28;19954;-62
2022/07/26 10:59:46;;;;;;;;;;;22.40;99.90;;;;;;4959512;28;19906;-62
2022/07/26 11:02:19;;;;;;;;;;;21.90;99.90;;;;;;4964450;28;19910;-62
2022/07/26 11:04:44;;;;;;;;;;;20.90;99.90;;;;;;4961681;28;19933;-62
2022/07/26 11:07:11;;;;;;;;;;;20.20;99.90;;;;;;4960593;28;19914;-62
2022/07/26 11:09:37;;;;;;;;;;;19.70;99.90;;;;;;4941343;28;19960;-62
2022/07/26 11:12:15;;;;;;;;;;;19.40;99.90;;;;;;4957740;28;19989;-62
2022/07/26 11:14:41;;;;;;;;;;;19.20;99.90;;;;;;4959424;28;19986;-62
2022/07/26 11:17:06;;;;;;;;;;;18.90;99.90;;;;;;4961230;28;19906;-62
2022/07/26 11:19:37;;;;;;;;;;;18.90;99.90;;;;;;4957805;28;20021;-62
2022/07/26 11:22:02;;;;;;;;;;;19.10;99.90;;;;;;4937836;28;19906;-62
2022/07/26 11:24:28;;;;;;;;;;;19.00;99.90;;;;;;4956298;28;19949;-62
2022/07/26 11:26:54;;;;;;;;;;;19.00;99.90;;;;;;4956831;28;19972;-62
2022/07/26 11:29:30;;;;;;;;;;;19.20;99.90;;;;;;4953039;28;19910;-62
2022/07/26 11:31:56;;;;;;;;;;;19.30;99.90;;;;;;4957704;28;20005;-62
2022/07/26 11:34:22;;;;;;;;;;;19.60;99.90;;;;;;4959821;28;20049;-62
2022/07/26 11:36:49;;;;;;;;;;;20.00;99.90;;;;;;4958359;28;19906;-62
2022/07/26 11:39:35;;;;;;;;;;;20.80;99.90;;;;;;4961629;28;19917;-62
2022/07/26 11:42:03;;;;;;;;;;;21.70;99.90;;;;;;4961202;28;19913;-62
2022/07/26 11:44:29;;;;;;;;;;;22.50;99.90;;;;;;4945222;28;20386;-62
2022/07/26 11:46:56;;;;;;;;;;;23.40;99.90;;;;;;4958464;28;20305;-62
2022/07/26 11:49:21;;;;;;;;;;;23.60;99.90;;;;;;4958834;28;19910;-62
2022/07/26 11:52:05;;;;;;;;;;;24.00;99.90;;;;;;4938451;28;19929;-62
2022/07/26 11:54:32;;;;;;;;;;;23.00;99.90;;;;;;4956936;28;20301;-62
2022/07/26 11:56:59;;;;;;;;;;;22.40;99.90;;;;;;4927192;28;19936;-63
2022/07/26 11:59:26;;;;;;;;;;;21.90;99.90;;;;;;4937395;28;19910;-63
2022/07/26 12:01:52;;;;;;;;;;;21.40;99.90;;;;;;4959208;28;20413;-62
2022/07/26 12:04:38;;;;;;;;;;;21.00;99.90;;;;;;4961934;28;20424;-62
2022/07/26 12:07:21;;;;;;;;;;;21.00;99.90;;;;;;4960324;28;19918;-62
2022/07/26 12:09:48;;;;;;;;;;;20.90;99.90;;;;;;4960061;28;19913;-62
2022/07/26 12:12:22;;;;;;;;;;;21.20;99.90;;;;;;4958254;28;20482;-62
2022/07/26 12:14:55;;;;;;;;;;;21.50;99.90;;;;;;4962098;28;20057;-62
2022/07/26 12:17:20;;;;;;;;;;;21.10;99.90;;;;;;4957566;28;19976;-62
2022/07/26 12:19:46;;;;;;;;;;;20.90;99.90;;;;;;4953981;28;19906;-62
2022/07/26 12:22:11;;;;;;;;;;;21.00;99.90;;;;;;4961856;28;19921;-62
2022/07/26 12:24:41;;;;;;;;;;;21.60;99.90;;;;;;4964114;28;19910;-62
2022/07/26 12:27:13;;;;;;;;;;;22.10;99.90;;;;;;4959518;28;19909;-62
2022/07/26 12:29:40;;;;;;;;;;;22.90;99.90;;;;;;4959337;28;19907;-60
2022/07/26 12:32:16;;;;;;;;;;;22.90;99.90;;;;;;4944496;28;19907;-62
2022/07/26 12:34:55;;;;;;;;;;;22.40;99.90;;;;;;4963034;28;20358;-62
2022/07/26 12:37:21;;;;;;;;;;;23.90;99.90;;;;;;4957147;28;19996;-62
2022/07/26 12:40:02;;;;;;;;;;;25.40;99.90;;;;;;4967805;28;20021;-63
2022/07/26 12:42:29;;;;;;;;;;;25.30;99.90;;;;;;4958677;28;20279;-63
2022/07/26 12:44:55;;;;;;;;;;;24.90;99.90;;;;;;4961892;28;19906;-63
2022/07/26 12:47:21;;;;;;;;;;;24.80;99.90;;;;;;4959967;28;19906;-63
2022/07/26 12:49:46;;;;;;;;;;;25.80;99.90;;;;;;4959839;28;19910;-63
2022/07/26 12:52:13;;;;;;;;;;;25.90;99.80;;;;;;4957613;28;19910;-63
2022/07/26 12:54:39;;;;;;;;;;;24.80;99.90;;;;;;4947457;28;19911;-62
2022/07/26 12:57:04;;;;;;;;;;;24.60;99.90;;;;;;4948861;28;20278;-63
2022/07/26 12:59:30;;;;;;;;;;;25.10;99.90;;;;;;4957612;28;19965;-63
2022/07/26 13:01:56;;;;;;;;;;;24.60;99.90;;;;;;4965413;28;19906;-63
2022/07/26 13:04:21;;;;;;;;;;;25.70;99.80;;;;;;4964440;28;20354;-63
2022/07/26 13:06:47;;;;;;;;;;;27.00;97.10;;;;;;4960464;28;19906;-63
2022/07/26 13:09:12;;;;;;;;;;;27.40;95.10;;;;;;4957029;28;19949;-63
2022/07/26 13:11:38;;;;;;;;;;;25.40;98.20;;;;;;4960505;28;20325;-63
2022/07/26 13:14:03;;;;;;;;;;;24.90;99.90;;;;;;4965832;28;19960;-63
2022/07/26 13:16:29;;;;;;;;;;;24.70;99.90;;;;;;4958802;28;20382;-63
2022/07/26 13:18:54;;;;;;;;;;;25.70;99.30;;;;;;4962828;28;19914;-63
2022/07/26 13:21:20;;;;;;;;;;;26.50;97.00;;;;;;4957273;28;19910;-63
2022/07/26 13:23:45;;;;;;;;;;;27.50;94.10;;;;;;4963053;28;19925;-63
2022/07/26 13:26:11;;;;;;;;;;;26.50;94.50;;;;;;4958391;28;20045;-63
2022/07/26 13:28:38;;;;;;;;;;;26.20;96.10;;;;;;4959196;28;19956;-63
2022/07/26 13:31:04;;;;;;;;;;;25.90;95.90;;;;;;4960586;28;19910;-63
2022/07/26 13:33:30;;;;;;;;;;;25.60;97.30;;;;;;4957998;28;19918;-63
2022/07/26 13:35:56;;;;;;;;;;;25.60;96.80;;;;;;4960026;28;19910;-63
2022/07/26 13:38:21;;;;;;;;;;;25.00;96.90;;;;;;4960713;28;19910;-63
2022/07/26 13:40:49;;;;;;;;;;;24.70;98.80;;;;;;4960250;28;19907;-62
2022/07/26 13:43:15;;;;;;;;;;;23.60;99.90;;;;;;4950737;28;20413;-63
2022/07/26 13:45:40;;;;;;;;;;;23.40;99.90;;;;;;4957066;28;19914;-62
2022/07/26 13:48:06;;;;;;;;;;;22.80;99.90;;;;;;4960743;28;19954;-64
2022/07/26 13:50:32;;;;;;;;;;;22.70;99.90;;;;;;4963259;28;20440;-64
2022/07/26 13:52:57;;;;;;;;;;;22.90;99.90;;;;;;4952459;29;19910;-64
2022/07/26 13:55:23;;;;;;;;;;;23.20;99.90;;;;;;4970484;28;19965;-64
2022/07/26 13:57:49;;;;;;;;;;;23.70;99.90;;;;;;4957660;28;19914;-63
2022/07/26 14:00:14;;;;;;;;;;;23.90;99.90;;;;;;4958754;28;19912;-63
2022/07/26 14:02:40;;;;;;;;;;;25.10;99.90;;;;;;4959364;28;19917;-63
2022/07/26 14:05:06;;;;;;;;;;;25.40;99.00;;;;;;4948564;28;20326;-63
2022/07/26 14:07:31;;;;;;;;;;;25.60;99.50;;;;;;4958209;28;19914;-63
2022/07/26 14:09:57;;;;;;;;;;;26.70;96.90;;;;;;4959889;28;19907;-63
2022/07/26 14:12:22;;;;;;;;;;;27.40;95.20;;;;;;4962297;28;19909;-63
2022/07/26 14:14:48;;;;;;;;;;;26.80;94.00;;;;;;4964057;28;20310;-63
2022/07/26 14:17:13;;;;;;;;;;;26.90;94.10;;;;;;4966704;28;19913;-63
2022/07/26 14:19:39;;;;;;;;;;;26.90;95.30;;;;;;4945522;29;20351;-63